sensor_id;sensor_type;location;lat;lon;timestamp;P1;durP1;ratioP1;P2;durP2;ratioP2
56255;SDS011;57229;51.432;-2.598;2024-03-23T00:53:44;13.52;;;5.30;;
56255;SDS011;57229;51.432;-2.598;2024-03-23T00:56:09;9.40;;;5.40;;
56255;SDS011;57229;51.432;-2.598;2024-03-23T00:58:35;13.02;;;5.47;;
56255;SDS011;57229;51.432;-2.598;2024-03-23T01:01:00;13.18;;;5.38;;
56255;SDS011;57229;51.432;-2.598;2024-03-23T01:03:28;8.00;;;5.45;;
56255;SDS011;57229;51.432;-2.598;2024-03-23T01:05:54;14.15;;;6.25;;
56255;SDS011;57229;51.432;-2.598;2024-03-23T01:08:19;14.75;;;6.15;;
56255;SDS011;57229;51.432;-2.598;2024-03-23T01:10:58;8.18;;;5.47;;
56255;SDS011;57229;51.432;-2.598;2024-03-23T01:13:25;9.95;;;5.95;;
56255;SDS011;57229;51.432;-2.598;2024-03-23T01:15:51;15.43;;;6.40;;
56255;SDS011;57229;51.432;-2.598;2024-03-23T01:18:18;14.48;;;5.95;;
56255;SDS011;57229;51.432;-2.598;2024-03-23T01:20:44;9.73;;;5.50;;
56255;SDS011;57229;51.432;-2.598;2024-03-23T01:23:10;18.10;;;6.15;;
56255;SDS011;57229;51.432;-2.598;2024-03-23T01:25:36;12.38;;;5.65;;
56255;SDS011;57229;51.432;-2.598;2024-03-23T01:28:01;13.20;;;6.10;;
56255;SDS011;57229;51.432;-2.598;2024-03-23T01:30:27;13.20;;;5.35;;
56255;SDS011;57229;51.432;-2.598;2024-03-23T01:32:53;12.95;;;6.25;;
56255;SDS011;57229;51.432;-2.598;2024-03-23T01:35:18;10.45;;;5.43;;
56255;SDS011;57229;51.432;-2.598;2024-03-23T01:37:44;13.45;;;5.75;;
56255;SDS011;57229;51.432;-2.598;2024-03-23T01:40:10;9.60;;;5.43;;
56255;SDS011;57229;51.432;-2.598;2024-03-23T01:42:38;10.70;;;5.55;;
56255;SDS011;57229;51.432;-2.598;2024-03-23T01:45:05;12.23;;;5.65;;
56255;SDS011;57229;51.432;-2.598;2024-03-23T01:47:33;13.50;;;5.22;;
56255;SDS011;57229;51.432;-2.598;2024-03-23T01:49:58;11.88;;;5.40;;
56255;SDS011;57229;51.432;-2.598;2024-03-23T01:52:24;9.02;;;5.55;;
56255;SDS011;57229;51.432;-2.598;2024-03-23T01:54:52;13.23;;;5.95;;
56255;SDS011;57229;51.432;-2.598;2024-03-23T01:57:17;12.77;;;5.90;;
56255;SDS011;57229;51.432;-2.598;2024-03-23T01:59:43;7.18;;;4.90;;
56255;SDS011;57229;51.432;-2.598;2024-03-23T02:02:09;16.17;;;6.32;;
56255;SDS011;57229;51.432;-2.598;2024-03-23T02:04:34;14.48;;;5.95;;
56255;SDS011;57229;51.432;-2.598;2024-03-23T02:07:00;13.05;;;6.07;;
56255;SDS011;57229;51.432;-2.598;2024-03-23T02:09:26;7.68;;;5.35;;
56255;SDS011;57229;51.432;-2.598;2024-03-23T02:11:51;18.45;;;5.53;;
56255;SDS011;57229;51.432;-2.598;2024-03-23T02:14:17;10.55;;;5.40;;
56255;SDS011;57229;51.432;-2.598;2024-03-23T02:16:42;16.02;;;5.65;;
56255;SDS011;57229;51.432;-2.598;2024-03-23T02:19:08;8.82;;;5.15;;
56255;SDS011;57229;51.432;-2.598;2024-03-23T02:21:34;9.07;;;5.40;;
56255;SDS011;57229;51.432;-2.598;2024-03-23T02:23:59;16.23;;;6.00;;
56255;SDS011;57229;51.432;-2.598;2024-03-23T02:26:25;11.13;;;5.40;;
56255;SDS011;57229;51.432;-2.598;2024-03-23T02:28:51;10.27;;;5.43;;
56255;SDS011;57229;51.432;-2.598;2024-03-23T02:31:17;9.18;;;5.13;;
56255;SDS011;57229;51.432;-2.598;2024-03-23T02:33:42;8.57;;;5.30;;
56255;SDS011;57229;51.432;-2.598;2024-03-23T02:36:08;14.77;;;5.60;;
56255;SDS011;57229;51.432;-2.598;2024-03-23T02:38:33;16.67;;;5.97;;
56255;SDS011;57229;51.432;-2.598;2024-03-23T02:41:03;12.50;;;5.28;;
56255;SDS011;57229;51.432;-2.598;2024-03-23T02:43:29;17.77;;;5.65;;
56255;SDS011;57229;51.432;-2.598;2024-03-23T02:45:54;15.70;;;5.57;;
56255;SDS011;57229;51.432;-2.598;2024-03-23T02:48:20;15.07;;;5.57;;
56255;SDS011;57229;51.432;-2.598;2024-03-23T02:50:46;8.93;;;5.38;;
56255;SDS011;57229;51.432;-2.598;2024-03-23T02:53:11;9.75;;;5.00;;
56255;SDS011;57229;51.432;-2.598;2024-03-23T02:55:37;14.75;;;5.10;;
56255;SDS011;57229;51.432;-2.598;2024-03-23T02:58:02;18.73;;;5.40;;
56255;SDS011;57229;51.432;-2.598;2024-03-23T03:00:28;11.50;;;5.72;;
56255;SDS011;57229;51.432;-2.598;2024-03-23T03:02:54;20.00;;;5.57;;
56255;SDS011;57229;51.432;-2.598;2024-03-23T03:05:20;14.40;;;5.55;;
56255;SDS011;57229;51.432;-2.598;2024-03-23T03:07:46;9.90;;;5.50;;
56255;SDS011;57229;51.432;-2.598;2024-03-23T03:10:11;9.57;;;5.15;;
56255;SDS011;57229;51.432;-2.598;2024-03-23T03:12:37;9.90;;;5.30;;
56255;SDS011;57229;51.432;-2.598;2024-03-23T03:15:03;19.00;;;5.90;;
56255;SDS011;57229;51.432;-2.598;2024-03-23T03:17:30;15.48;;;5.70;;
56255;SDS011;57229;51.432;-2.598;2024-03-23T03:19:55;11.32;;;5.20;;
56255;SDS011;57229;51.432;-2.598;2024-03-23T03:22:22;19.95;;;6.25;;
56255;SDS011;57229;51.432;-2.598;2024-03-23T03:24:47;11.40;;;5.72;;
56255;SDS011;57229;51.432;-2.598;2024-03-23T03:27:13;23.05;;;5.07;;
56255;SDS011;57229;51.432;-2.598;2024-03-23T03:29:39;17.73;;;6.00;;
56255;SDS011;57229;51.432;-2.598;2024-03-23T03:32:05;27.40;;;5.72;;
56255;SDS011;57229;51.432;-2.598;2024-03-23T03:34:31;13.27;;;5.70;;
56255;SDS011;57229;51.432;-2.598;2024-03-23T03:36:57;19.70;;;6.20;;
56255;SDS011;57229;51.432;-2.598;2024-03-23T03:39:22;13.15;;;5.53;;
56255;SDS011;57229;51.432;-2.598;2024-03-23T03:41:49;13.68;;;5.65;;
56255;SDS011;57229;51.432;-2.598;2024-03-23T03:44:14;16.38;;;5.78;;
56255;SDS011;57229;51.432;-2.598;2024-03-23T03:46:40;13.65;;;5.78;;
56255;SDS011;57229;51.432;-2.598;2024-03-23T03:49:05;13.73;;;5.45;;
56255;SDS011;57229;51.432;-2.598;2024-03-23T03:51:31;9.70;;;5.45;;
56255;SDS011;57229;51.432;-2.598;2024-03-23T03:53:56;17.48;;;5.47;;
56255;SDS011;57229;51.432;-2.598;2024-03-23T03:56:22;19.88;;;5.60;;
56255;SDS011;57229;51.432;-2.598;2024-03-23T03:58:48;11.23;;;5.03;;
56255;SDS011;57229;51.432;-2.598;2024-03-23T04:01:13;12.52;;;6.03;;
56255;SDS011;57229;51.432;-2.598;2024-03-23T04:03:39;11.48;;;5.35;;
56255;SDS011;57229;51.432;-2.598;2024-03-23T04:06:09;11.95;;;5.82;;
56255;SDS011;57229;51.432;-2.598;2024-03-23T04:08:35;11.13;;;5.18;;
56255;SDS011;57229;51.432;-2.598;2024-03-23T04:11:00;17.08;;;5.30;;
56255;SDS011;57229;51.432;-2.598;2024-03-23T04:13:26;11.52;;;4.93;;
56255;SDS011;57229;51.432;-2.598;2024-03-23T04:15:55;13.85;;;5.75;;
56255;SDS011;57229;51.432;-2.598;2024-03-23T04:18:21;13.80;;;5.68;;
56255;SDS011;57229;51.432;-2.598;2024-03-23T04:20:51;10.30;;;5.53;;
56255;SDS011;57229;51.432;-2.598;2024-03-23T04:23:17;14.95;;;5.53;;
56255;SDS011;57229;51.432;-2.598;2024-03-23T04:25:42;14.07;;;5.45;;
56255;SDS011;57229;51.432;-2.598;2024-03-23T04:28:08;14.65;;;6.05;;
56255;SDS011;57229;51.432;-2.598;2024-03-23T04:30:33;15.65;;;5.70;;
56255;SDS011;57229;51.432;-2.598;2024-03-23T04:32:59;16.20;;;5.85;;
56255;SDS011;57229;51.432;-2.598;2024-03-23T04:35:26;12.05;;;5.47;;
56255;SDS011;57229;51.432;-2.598;2024-03-23T04:37:51;19.70;;;6.18;;
56255;SDS011;57229;51.432;-2.598;2024-03-23T04:40:18;21.10;;;6.72;;
56255;SDS011;57229;51.432;-2.598;2024-03-23T04:42:44;13.35;;;5.70;;
56255;SDS011;57229;51.432;-2.598;2024-03-23T04:45:09;20.90;;;5.97;;
56255;SDS011;57229;51.432;-2.598;2024-03-23T04:47:35;19.50;;;6.20;;
56255;SDS011;57229;51.432;-2.598;2024-03-23T04:50:02;16.45;;;5.25;;
56255;SDS011;57229;51.432;-2.598;2024-03-23T04:52:31;15.27;;;5.72;;
56255;SDS011;57229;51.432;-2.598;2024-03-23T04:54:57;9.68;;;5.57;;
56255;SDS011;57229;51.432;-2.598;2024-03-23T04:57:22;18.40;;;6.07;;
56255;SDS011;57229;51.432;-2.598;2024-03-23T04:59:48;17.80;;;6.15;;
56255;SDS011;57229;51.432;-2.598;2024-03-23T05:02:14;16.95;;;6.00;;
56255;SDS011;57229;51.432;-2.598;2024-03-23T05:04:40;18.13;;;5.80;;
56255;SDS011;57229;51.432;-2.598;2024-03-23T05:07:05;19.15;;;5.70;;
56255;SDS011;57229;51.432;-2.598;2024-03-23T05:09:31;12.65;;;5.82;;
56255;SDS011;57229;51.432;-2.598;2024-03-23T05:11:58;13.45;;;5.40;;
56255;SDS011;57229;51.432;-2.598;2024-03-23T05:14:27;13.00;;;5.55;;
56255;SDS011;57229;51.432;-2.598;2024-03-23T05:16:53;17.23;;;5.95;;
56255;SDS011;57229;51.432;-2.598;2024-03-23T05:19:19;18.23;;;5.80;;
56255;SDS011;57229;51.432;-2.598;2024-03-23T05:21:45;17.52;;;5.60;;
56255;SDS011;57229;51.432;-2.598;2024-03-23T05:24:11;15.35;;;5.60;;
56255;SDS011;57229;51.432;-2.598;2024-03-23T05:26:37;18.20;;;5.60;;
56255;SDS011;57229;51.432;-2.598;2024-03-23T05:29:03;8.90;;;5.25;;
56255;SDS011;57229;51.432;-2.598;2024-03-23T05:31:31;6.35;;;5.43;;
56255;SDS011;57229;51.432;-2.598;2024-03-23T05:33:56;15.98;;;6.15;;
56255;SDS011;57229;51.432;-2.598;2024-03-23T05:36:22;16.77;;;5.75;;
56255;SDS011;57229;51.432;-2.598;2024-03-23T05:38:49;15.82;;;5.72;;
56255;SDS011;57229;51.432;-2.598;2024-03-23T05:41:15;9.25;;;5.30;;
56255;SDS011;57229;51.432;-2.598;2024-03-23T05:43:41;14.18;;;5.90;;
56255;SDS011;57229;51.432;-2.598;2024-03-23T05:46:06;16.67;;;5.65;;
56255;SDS011;57229;51.432;-2.598;2024-03-23T05:48:35;11.65;;;5.55;;
56255;SDS011;57229;51.432;-2.598;2024-03-23T05:51:01;15.50;;;6.13;;
56255;SDS011;57229;51.432;-2.598;2024-03-23T05:53:27;15.38;;;5.60;;
56255;SDS011;57229;51.432;-2.598;2024-03-23T05:56:02;18.85;;;6.15;;
56255;SDS011;57229;51.432;-2.598;2024-03-23T05:58:32;16.38;;;5.45;;
56255;SDS011;57229;51.432;-2.598;2024-03-23T06:00:58;9.60;;;5.60;;
56255;SDS011;57229;51.432;-2.598;2024-03-23T06:03:28;9.63;;;5.30;;
56255;SDS011;57229;51.432;-2.598;2024-03-23T06:05:54;15.05;;;5.70;;
56255;SDS011;57229;51.432;-2.598;2024-03-23T06:08:21;9.23;;;5.43;;
56255;SDS011;57229;51.432;-2.598;2024-03-23T06:10:46;9.25;;;5.53;;
56255;SDS011;57229;51.432;-2.598;2024-03-23T06:13:12;13.80;;;5.55;;
56255;SDS011;57229;51.432;-2.598;2024-03-23T06:15:38;11.80;;;5.35;;
56255;SDS011;57229;51.432;-2.598;2024-03-23T06:18:04;8.82;;;5.35;;
56255;SDS011;57229;51.432;-2.598;2024-03-23T06:20:34;14.25;;;5.80;;
56255;SDS011;57229;51.432;-2.598;2024-03-23T06:23:02;15.90;;;5.90;;
56255;SDS011;57229;51.432;-2.598;2024-03-23T06:25:28;12.10;;;5.55;;
56255;SDS011;57229;51.432;-2.598;2024-03-23T06:27:54;14.95;;;6.32;;
56255;SDS011;57229;51.432;-2.598;2024-03-23T06:30:20;7.05;;;5.43;;
56255;SDS011;57229;51.432;-2.598;2024-03-23T06:32:45;11.52;;;6.28;;
56255;SDS011;57229;51.432;-2.598;2024-03-23T06:35:11;13.57;;;5.95;;
56255;SDS011;57229;51.432;-2.598;2024-03-23T06:37:37;11.13;;;5.88;;
56255;SDS011;57229;51.432;-2.598;2024-03-23T06:40:03;16.20;;;6.15;;
56255;SDS011;57229;51.432;-2.598;2024-03-23T06:42:33;23.05;;;6.13;;
56255;SDS011;57229;51.432;-2.598;2024-03-23T06:44:59;15.70;;;6.28;;
56255;SDS011;57229;51.432;-2.598;2024-03-23T06:47:24;21.77;;;5.78;;
56255;SDS011;57229;51.432;-2.598;2024-03-23T06:49:50;20.08;;;6.43;;
56255;SDS011;57229;51.432;-2.598;2024-03-23T06:52:16;9.98;;;5.53;;
56255;SDS011;57229;51.432;-2.598;2024-03-23T06:54:42;8.38;;;5.35;;
56255;SDS011;57229;51.432;-2.598;2024-03-23T06:57:09;14.60;;;6.20;;
56255;SDS011;57229;51.432;-2.598;2024-03-23T06:59:36;11.23;;;5.75;;
56255;SDS011;57229;51.432;-2.598;2024-03-23T07:02:03;17.42;;;6.15;;
56255;SDS011;57229;51.432;-2.598;2024-03-23T07:04:30;10.48;;;5.57;;
56255;SDS011;57229;51.432;-2.598;2024-03-23T07:06:55;19.08;;;5.45;;
56255;SDS011;57229;51.432;-2.598;2024-03-23T07:09:21;17.20;;;5.53;;
56255;SDS011;57229;51.432;-2.598;2024-03-23T07:11:51;15.32;;;5.20;;
56255;SDS011;57229;51.432;-2.598;2024-03-23T07:14:18;14.35;;;5.03;;
56255;SDS011;57229;51.432;-2.598;2024-03-23T07:16:43;11.18;;;4.95;;
56255;SDS011;57229;51.432;-2.598;2024-03-23T07:19:09;13.20;;;5.60;;
56255;SDS011;57229;51.432;-2.598;2024-03-23T07:21:35;14.07;;;6.07;;
56255;SDS011;57229;51.432;-2.598;2024-03-23T07:24:02;12.07;;;5.15;;
56255;SDS011;57229;51.432;-2.598;2024-03-23T07:26:27;15.57;;;5.95;;
56255;SDS011;57229;51.432;-2.598;2024-03-23T07:28:53;15.68;;;6.05;;
56255;SDS011;57229;51.432;-2.598;2024-03-23T07:31:19;18.33;;;5.82;;
56255;SDS011;57229;51.432;-2.598;2024-03-23T07:33:45;14.63;;;5.78;;
56255;SDS011;57229;51.432;-2.598;2024-03-23T07:36:12;15.85;;;5.22;;
56255;SDS011;57229;51.432;-2.598;2024-03-23T07:38:40;11.77;;;5.20;;
56255;SDS011;57229;51.432;-2.598;2024-03-23T07:41:12;17.13;;;5.28;;
56255;SDS011;57229;51.432;-2.598;2024-03-23T07:43:43;14.45;;;5.40;;
56255;SDS011;57229;51.432;-2.598;2024-03-23T07:46:09;16.15;;;5.63;;
56255;SDS011;57229;51.432;-2.598;2024-03-23T07:48:55;11.80;;;5.35;;
56255;SDS011;57229;51.432;-2.598;2024-03-23T07:51:23;17.42;;;5.32;;
56255;SDS011;57229;51.432;-2.598;2024-03-23T07:53:49;14.77;;;5.15;;
56255;SDS011;57229;51.432;-2.598;2024-03-23T07:56:15;12.38;;;5.28;;
56255;SDS011;57229;51.432;-2.598;2024-03-23T07:58:42;15.27;;;5.63;;
56255;SDS011;57229;51.432;-2.598;2024-03-23T08:01:11;14.43;;;5.47;;
56255;SDS011;57229;51.432;-2.598;2024-03-23T08:03:40;10.35;;;5.55;;
56255;SDS011;57229;51.432;-2.598;2024-03-23T08:06:10;18.00;;;5.97;;
56255;SDS011;57229;51.432;-2.598;2024-03-23T08:08:36;12.38;;;5.43;;
56255;SDS011;57229;51.432;-2.598;2024-03-23T08:11:02;14.25;;;6.05;;
56255;SDS011;57229;51.432;-2.598;2024-03-23T08:13:28;17.38;;;5.25;;
56255;SDS011;57229;51.432;-2.598;2024-03-23T08:15:58;12.00;;;4.97;;
56255;SDS011;57229;51.432;-2.598;2024-03-23T08:18:25;15.32;;;5.65;;
56255;SDS011;57229;51.432;-2.598;2024-03-23T08:23:24;14.45;;;5.45;;
56255;SDS011;57229;51.432;-2.598;2024-03-23T08:25:50;11.10;;;5.75;;
56255;SDS011;57229;51.432;-2.598;2024-03-23T08:28:17;16.50;;;5.38;;
56255;SDS011;57229;51.432;-2.598;2024-03-23T08:30:42;15.00;;;5.40;;
56255;SDS011;57229;51.432;-2.598;2024-03-23T08:33:08;12.52;;;5.75;;
56255;SDS011;57229;51.432;-2.598;2024-03-23T08:35:34;20.98;;;5.90;;
56255;SDS011;57229;51.432;-2.598;2024-03-23T08:37:59;19.80;;;6.38;;
56255;SDS011;57229;51.432;-2.598;2024-03-23T08:40:25;14.18;;;6.40;;
56255;SDS011;57229;51.432;-2.598;2024-03-23T08:42:51;14.77;;;5.43;;
56255;SDS011;57229;51.432;-2.598;2024-03-23T08:45:16;12.38;;;5.20;;
56255;SDS011;57229;51.432;-2.598;2024-03-23T08:47:42;17.08;;;5.15;;
56255;SDS011;57229;51.432;-2.598;2024-03-23T08:50:07;16.15;;;5.32;;
56255;SDS011;57229;51.432;-2.598;2024-03-23T08:52:33;16.77;;;5.85;;
56255;SDS011;57229;51.432;-2.598;2024-03-23T08:54:59;17.70;;;5.43;;
56255;SDS011;57229;51.432;-2.598;2024-03-23T08:57:25;15.45;;;6.57;;
56255;SDS011;57229;51.432;-2.598;2024-03-23T08:59:50;14.23;;;5.45;;
56255;SDS011;57229;51.432;-2.598;2024-03-23T09:02:16;11.27;;;5.00;;
56255;SDS011;57229;51.432;-2.598;2024-03-23T09:04:41;13.38;;;6.00;;
56255;SDS011;57229;51.432;-2.598;2024-03-23T09:07:07;7.97;;;5.25;;
56255;SDS011;57229;51.432;-2.598;2024-03-23T09:09:33;9.73;;;5.07;;
56255;SDS011;57229;51.432;-2.598;2024-03-23T09:11:58;13.25;;;5.25;;
56255;SDS011;57229;51.432;-2.598;2024-03-23T09:14:24;13.90;;;5.25;;
56255;SDS011;57229;51.432;-2.598;2024-03-23T09:16:50;10.93;;;4.57;;
56255;SDS011;57229;51.432;-2.598;2024-03-23T09:19:16;16.55;;;5.47;;
56255;SDS011;57229;51.432;-2.598;2024-03-23T09:21:42;11.57;;;6.03;;
56255;SDS011;57229;51.432;-2.598;2024-03-23T09:24:08;10.30;;;5.07;;
56255;SDS011;57229;51.432;-2.598;2024-03-23T09:26:33;12.80;;;5.40;;
56255;SDS011;57229;51.432;-2.598;2024-03-23T09:28:59;10.90;;;4.70;;
56255;SDS011;57229;51.432;-2.598;2024-03-23T09:31:25;10.88;;;5.35;;
56255;SDS011;57229;51.432;-2.598;2024-03-23T09:33:50;8.15;;;4.50;;
56255;SDS011;57229;51.432;-2.598;2024-03-23T09:36:16;10.02;;;5.00;;
56255;SDS011;57229;51.432;-2.598;2024-03-23T09:38:41;11.45;;;4.85;;
56255;SDS011;57229;51.432;-2.598;2024-03-23T09:41:07;9.43;;;4.38;;
56255;SDS011;57229;51.432;-2.598;2024-03-23T09:43:34;8.13;;;5.18;;
56255;SDS011;57229;51.432;-2.598;2024-03-23T09:46:01;12.43;;;4.72;;
56255;SDS011;57229;51.432;-2.598;2024-03-23T09:48:27;11.30;;;5.20;;
56255;SDS011;57229;51.432;-2.598;2024-03-23T09:50:53;15.23;;;5.53;;
56255;SDS011;57229;51.432;-2.598;2024-03-23T09:53:19;15.45;;;5.00;;
56255;SDS011;57229;51.432;-2.598;2024-03-23T09:55:45;7.75;;;4.32;;
56255;SDS011;57229;51.432;-2.598;2024-03-23T09:58:17;10.63;;;4.57;;
56255;SDS011;57229;51.432;-2.598;2024-03-23T10:00:43;11.90;;;4.65;;
56255;SDS011;57229;51.432;-2.598;2024-03-23T10:03:09;9.30;;;4.45;;
56255;SDS011;57229;51.432;-2.598;2024-03-23T10:05:36;15.68;;;4.75;;
56255;SDS011;57229;51.432;-2.598;2024-03-23T10:10:40;6.65;;;4.22;;
56255;SDS011;57229;51.432;-2.598;2024-03-23T10:13:06;8.57;;;4.30;;
56255;SDS011;57229;51.432;-2.598;2024-03-23T10:15:35;5.75;;;4.22;;
56255;SDS011;57229;51.432;-2.598;2024-03-23T10:20:43;5.82;;;4.60;;
56255;SDS011;57229;51.432;-2.598;2024-03-23T10:23:18;5.20;;;4.50;;
56255;SDS011;57229;51.432;-2.598;2024-03-23T10:25:43;5.97;;;4.10;;
56255;SDS011;57229;51.432;-2.598;2024-03-23T10:28:10;9.43;;;4.00;;
56255;SDS011;57229;51.432;-2.598;2024-03-23T10:30:36;9.02;;;3.88;;
56255;SDS011;57229;51.432;-2.598;2024-03-23T10:33:09;8.15;;;4.43;;
56255;SDS011;57229;51.432;-2.598;2024-03-23T10:35:38;7.68;;;4.40;;
56255;SDS011;57229;51.432;-2.598;2024-03-23T10:38:04;4.47;;;3.90;;
56255;SDS011;57229;51.432;-2.598;2024-03-23T10:40:31;5.70;;;4.13;;
56255;SDS011;57229;51.432;-2.598;2024-03-23T10:42:59;8.18;;;4.00;;
56255;SDS011;57229;51.432;-2.598;2024-03-23T10:45:27;7.70;;;4.90;;
56255;SDS011;57229;51.432;-2.598;2024-03-23T10:47:52;6.88;;;4.18;;
56255;SDS011;57229;51.432;-2.598;2024-03-23T10:50:18;5.93;;;3.88;;
56255;SDS011;57229;51.432;-2.598;2024-03-23T10:52:45;6.95;;;4.50;;
56255;SDS011;57229;51.432;-2.598;2024-03-23T10:55:12;10.52;;;4.57;;
56255;SDS011;57229;51.432;-2.598;2024-03-23T10:57:41;10.27;;;4.65;;
56255;SDS011;57229;51.432;-2.598;2024-03-23T11:00:15;11.68;;;5.85;;
56255;SDS011;57229;51.432;-2.598;2024-03-23T11:02:41;7.35;;;5.30;;
56255;SDS011;57229;51.432;-2.598;2024-03-23T11:08:02;6.55;;;5.20;;
56255;SDS011;57229;51.432;-2.598;2024-03-23T11:10:28;7.07;;;5.38;;
56255;SDS011;57229;51.432;-2.598;2024-03-23T11:13:21;5.57;;;5.05;;
56255;SDS011;57229;51.432;-2.598;2024-03-23T11:15:48;5.30;;;4.90;;
56255;SDS011;57229;51.432;-2.598;2024-03-23T11:18:19;8.32;;;4.85;;
56255;SDS011;57229;51.432;-2.598;2024-03-23T11:20:46;6.47;;;4.47;;
56255;SDS011;57229;51.432;-2.598;2024-03-23T11:23:26;7.57;;;4.38;;
56255;SDS011;57229;51.432;-2.598;2024-03-23T11:25:52;8.27;;;4.38;;
56255;SDS011;57229;51.432;-2.598;2024-03-23T11:28:18;7.90;;;4.50;;
56255;SDS011;57229;51.432;-2.598;2024-03-23T11:30:43;8.18;;;4.40;;
56255;SDS011;57229;51.432;-2.598;2024-03-23T11:33:09;6.65;;;4.57;;
56255;SDS011;57229;51.432;-2.598;2024-03-23T11:35:38;5.30;;;4.30;;
56255;SDS011;57229;51.432;-2.598;2024-03-23T11:40:37;4.78;;;4.38;;
56255;SDS011;57229;51.432;-2.598;2024-03-23T11:43:06;5.40;;;4.85;;
56255;SDS011;57229;51.432;-2.598;2024-03-23T11:45:34;5.00;;;4.50;;
56255;SDS011;57229;51.432;-2.598;2024-03-23T11:48:02;4.80;;;4.40;;
56255;SDS011;57229;51.432;-2.598;2024-03-23T11:50:31;4.93;;;4.30;;
56255;SDS011;57229;51.432;-2.598;2024-03-23T11:55:47;5.85;;;4.25;;
56255;SDS011;57229;51.432;-2.598;2024-03-23T11:58:18;4.82;;;4.40;;
56255;SDS011;57229;51.432;-2.598;2024-03-23T12:03:30;5.80;;;4.38;;
56255;SDS011;57229;51.432;-2.598;2024-03-23T12:05:58;5.18;;;4.70;;
56255;SDS011;57229;51.432;-2.598;2024-03-23T12:08:30;5.40;;;4.90;;
56255;SDS011;57229;51.432;-2.598;2024-03-23T12:11:06;5.57;;;4.25;;
56255;SDS011;57229;51.432;-2.598;2024-03-23T12:13:34;6.20;;;5.00;;
56255;SDS011;57229;51.432;-2.598;2024-03-23T12:18:36;5.38;;;4.32;;
56255;SDS011;57229;51.432;-2.598;2024-03-23T12:21:02;5.28;;;4.70;;
56255;SDS011;57229;51.432;-2.598;2024-03-23T12:23:28;8.57;;;4.70;;
56255;SDS011;57229;51.432;-2.598;2024-03-23T12:25:54;6.93;;;4.88;;
56255;SDS011;57229;51.432;-2.598;2024-03-23T12:28:19;5.75;;;4.50;;
56255;SDS011;57229;51.432;-2.598;2024-03-23T12:30:45;5.07;;;4.57;;
56255;SDS011;57229;51.432;-2.598;2024-03-23T12:33:10;8.55;;;4.63;;
56255;SDS011;57229;51.432;-2.598;2024-03-23T12:35:36;4.63;;;3.90;;
56255;SDS011;57229;51.432;-2.598;2024-03-23T12:38:01;4.50;;;4.10;;
56255;SDS011;57229;51.432;-2.598;2024-03-23T12:40:28;7.38;;;3.90;;
56255;SDS011;57229;51.432;-2.598;2024-03-23T12:42:54;7.53;;;4.40;;
56255;SDS011;57229;51.432;-2.598;2024-03-23T12:45:21;6.13;;;3.78;;
56255;SDS011;57229;51.432;-2.598;2024-03-23T12:47:47;5.00;;;3.80;;
56255;SDS011;57229;51.432;-2.598;2024-03-23T12:50:12;4.80;;;4.20;;
56255;SDS011;57229;51.432;-2.598;2024-03-23T12:52:38;4.70;;;4.30;;
56255;SDS011;57229;51.432;-2.598;2024-03-23T12:55:04;5.93;;;4.13;;
56255;SDS011;57229;51.432;-2.598;2024-03-23T12:57:30;5.53;;;4.20;;
56255;SDS011;57229;51.432;-2.598;2024-03-23T12:59:57;4.93;;;4.25;;
56255;SDS011;57229;51.432;-2.598;2024-03-23T13:02:22;5.15;;;4.45;;
56255;SDS011;57229;51.432;-2.598;2024-03-23T13:04:54;5.20;;;4.40;;
56255;SDS011;57229;51.432;-2.598;2024-03-23T13:07:21;4.93;;;4.40;;
56255;SDS011;57229;51.432;-2.598;2024-03-23T13:09:49;4.90;;;4.38;;
56255;SDS011;57229;51.432;-2.598;2024-03-23T13:12:16;5.30;;;4.75;;
56255;SDS011;57229;51.432;-2.598;2024-03-23T13:14:43;4.60;;;3.85;;
56255;SDS011;57229;51.432;-2.598;2024-03-23T13:17:09;5.70;;;3.85;;
56255;SDS011;57229;51.432;-2.598;2024-03-23T13:19:35;4.00;;;3.70;;
56255;SDS011;57229;51.432;-2.598;2024-03-23T13:22:00;4.20;;;3.80;;
56255;SDS011;57229;51.432;-2.598;2024-03-23T13:24:30;4.20;;;3.85;;
56255;SDS011;57229;51.432;-2.598;2024-03-23T13:26:56;4.30;;;3.88;;
56255;SDS011;57229;51.432;-2.598;2024-03-23T13:29:22;6.18;;;3.90;;
56255;SDS011;57229;51.432;-2.598;2024-03-23T13:31:49;6.18;;;4.93;;
56255;SDS011;57229;51.432;-2.598;2024-03-23T13:34:16;5.15;;;4.00;;
56255;SDS011;57229;51.432;-2.598;2024-03-23T13:36:42;4.30;;;3.90;;
56255;SDS011;57229;51.432;-2.598;2024-03-23T13:39:11;5.50;;;4.10;;
56255;SDS011;57229;51.432;-2.598;2024-03-23T13:41:38;6.32;;;4.25;;
56255;SDS011;57229;51.432;-2.598;2024-03-23T13:44:08;9.52;;;4.95;;
56255;SDS011;57229;51.432;-2.598;2024-03-23T13:46:40;8.93;;;4.30;;
56255;SDS011;57229;51.432;-2.598;2024-03-23T13:51:52;5.07;;;3.80;;
56255;SDS011;57229;51.432;-2.598;2024-03-23T13:54:23;9.07;;;4.70;;
56255;SDS011;57229;51.432;-2.598;2024-03-23T13:56:49;4.75;;;4.20;;
56255;SDS011;57229;51.432;-2.598;2024-03-23T13:59:15;4.45;;;4.05;;
56255;SDS011;57229;51.432;-2.598;2024-03-23T14:01:42;8.57;;;4.40;;
56255;SDS011;57229;51.432;-2.598;2024-03-23T14:04:07;3.97;;;3.60;;
56255;SDS011;57229;51.432;-2.598;2024-03-23T14:06:33;4.10;;;3.80;;
56255;SDS011;57229;51.432;-2.598;2024-03-23T14:08:59;4.47;;;4.05;;
56255;SDS011;57229;51.432;-2.598;2024-03-23T14:11:24;4.10;;;3.70;;
56255;SDS011;57229;51.432;-2.598;2024-03-23T14:13:51;4.10;;;3.50;;
56255;SDS011;57229;51.432;-2.598;2024-03-23T14:16:18;4.40;;;3.67;;
56255;SDS011;57229;51.432;-2.598;2024-03-23T14:18:45;4.22;;;3.83;;
56255;SDS011;57229;51.432;-2.598;2024-03-23T14:21:11;5.32;;;4.03;;
56255;SDS011;57229;51.432;-2.598;2024-03-23T14:23:37;4.80;;;4.03;;
56255;SDS011;57229;51.432;-2.598;2024-03-23T14:26:03;3.92;;;3.67;;
56255;SDS011;57229;51.432;-2.598;2024-03-23T14:28:28;5.10;;;3.90;;
56255;SDS011;57229;51.432;-2.598;2024-03-23T14:30:55;4.45;;;4.05;;
56255;SDS011;57229;51.432;-2.598;2024-03-23T14:33:21;4.10;;;3.70;;
56255;SDS011;57229;51.432;-2.598;2024-03-23T14:35:56;5.55;;;4.35;;
56255;SDS011;57229;51.432;-2.598;2024-03-23T14:40:48;9.00;;;4.30;;
56255;SDS011;57229;51.432;-2.598;2024-03-23T14:43:14;7.38;;;4.10;;
56255;SDS011;57229;51.432;-2.598;2024-03-23T14:48:34;5.40;;;3.88;;
56255;SDS011;57229;51.432;-2.598;2024-03-23T14:51:00;5.70;;;3.67;;
56255;SDS011;57229;51.432;-2.598;2024-03-23T14:53:26;6.32;;;3.88;;
56255;SDS011;57229;51.432;-2.598;2024-03-23T14:55:55;3.92;;;3.58;;
56255;SDS011;57229;51.432;-2.598;2024-03-23T14:58:21;4.53;;;4.00;;
56255;SDS011;57229;51.432;-2.598;2024-03-23T15:00:48;5.82;;;4.18;;
56255;SDS011;57229;51.432;-2.598;2024-03-23T15:03:14;4.93;;;3.97;;
56255;SDS011;57229;51.432;-2.598;2024-03-23T15:05:39;7.47;;;4.30;;
56255;SDS011;57229;51.432;-2.598;2024-03-23T15:08:05;4.30;;;3.85;;
56255;SDS011;57229;51.432;-2.598;2024-03-23T15:10:32;4.38;;;3.97;;
56255;SDS011;57229;51.432;-2.598;2024-03-23T15:12:58;4.20;;;3.90;;
56255;SDS011;57229;51.432;-2.598;2024-03-23T15:15:24;5.07;;;4.00;;
56255;SDS011;57229;51.432;-2.598;2024-03-23T15:17:49;4.30;;;3.90;;
56255;SDS011;57229;51.432;-2.598;2024-03-23T15:20:15;4.85;;;4.28;;
56255;SDS011;57229;51.432;-2.598;2024-03-23T15:22:41;4.03;;;3.70;;
56255;SDS011;57229;51.432;-2.598;2024-03-23T15:25:07;4.13;;;3.72;;
56255;SDS011;57229;51.432;-2.598;2024-03-23T15:27:33;4.88;;;4.10;;
56255;SDS011;57229;51.432;-2.598;2024-03-23T15:29:59;4.75;;;4.10;;
56255;SDS011;57229;51.432;-2.598;2024-03-23T15:32:24;5.53;;;3.92;;
56255;SDS011;57229;51.432;-2.598;2024-03-23T15:34:50;4.80;;;4.22;;
56255;SDS011;57229;51.432;-2.598;2024-03-23T15:37:17;4.60;;;4.20;;
56255;SDS011;57229;51.432;-2.598;2024-03-23T15:39:43;4.28;;;3.88;;
56255;SDS011;57229;51.432;-2.598;2024-03-23T15:42:08;4.45;;;3.92;;
56255;SDS011;57229;51.432;-2.598;2024-03-23T15:44:35;5.40;;;3.90;;
56255;SDS011;57229;51.432;-2.598;2024-03-23T15:47:00;4.75;;;3.90;;